Time;durP1;ratioP1;P1;durP2;ratioP2;P2;SDS_P1;SDS_P2;PMS_P1;PMS_P2;Temp;Humidity;BMP_temperature;BMP_pressure;BME280_temperature;BME280_humidity;BME280_pressure;Samples;Min_cycle;Max_cycle;Signal;HPM_P1;HPM_P2
2023/07/24 00:00:40;;;;;;;6.40;4.90;;;;;;;19.30;61.23;97341.70;106886;1274;22627;-76
2023/07/24 00:03:28;;;;;;;5.50;4.90;;;;;;;19.25;61.41;97334.52;106895;1274;22592;-77
2023/07/24 00:05:59;;;;;;;5.90;5.10;;;;;;;19.23;61.60;97338.09;106905;1274;22636;-77
2023/07/24 00:08:27;;;;;;;8.00;5.50;;;;;;;19.23;61.85;97338.16;106899;1274;22524;-77
2023/07/24 00:10:55;;;;;;;7.20;5.10;;;;;;;19.27;61.87;97338.21;106876;1274;24253;-76
2023/07/24 00:13:23;;;;;;;8.10;5.60;;;;;;;19.26;61.89;97338.85;106869;1274;25538;-77
2023/07/24 00:15:51;;;;;;;6.60;5.20;;;;;;;19.24;61.76;97340.15;106839;1274;22623;-76
2023/07/24 00:18:19;;;;;;;6.60;5.60;;;;;;;19.23;61.99;97338.63;106885;1274;22672;-77
2023/07/24 00:20:47;;;;;;;6.50;5.40;;;;;;;19.21;62.08;97337.29;106847;1274;25396;-76
2023/07/24 00:23:15;;;;;;;6.60;5.60;;;;;;;19.26;62.08;97338.21;106868;1274;22547;-76
2023/07/24 00:25:43;;;;;;;7.70;5.10;;;;;;;19.31;62.05;97332.58;106888;1252;22605;-76
2023/07/24 00:28:11;;;;;;;8.10;5.40;;;;;;;19.34;62.14;97330.12;106732;1251;160556;-76
2023/07/24 00:30:40;;;;;;;8.50;5.60;;;;;;;19.38;62.26;97334.39;106901;1274;22642;-76
2023/07/24 00:33:08;;;;;;;6.60;4.90;;;;;;;19.40;62.23;97324.90;106877;1274;24249;-76
2023/07/24 00:35:36;;;;;;;6.90;5.10;;;;;;;19.47;62.55;97326.14;106861;1274;22636;-76
2023/07/24 00:38:04;;;;;;;6.30;5.40;;;;;;;19.50;62.57;97320.96;106874;1274;22648;-76
2023/07/24 00:40:32;;;;;;;11.40;5.20;;;;;;;19.55;62.50;97320.48;106822;1274;23705;-76
2023/07/24 00:43:00;;;;;;;7.00;5.10;;;;;;;19.58;62.40;97316.21;106853;1274;22604;-76
2023/07/24 00:45:29;;;;;;;7.00;5.50;;;;;;;19.63;62.42;97313.55;106839;1274;22643;-76
2023/07/24 00:47:59;;;;;;;6.10;5.00;;;;;;;19.67;62.37;97308.24;106856;1274;25509;-77
2023/07/24 00:50:28;;;;;;;7.40;5.00;;;;;;;19.72;62.34;97313.77;106958;1251;22633;-77
2023/07/24 00:52:57;;;;;;;7.80;5.60;;;;;;;19.75;62.72;97320.96;107088;1274;22585;-77
2023/07/24 00:55:25;;;;;;;6.40;5.20;;;;;;;19.80;62.77;97323.92;106974;1274;23706;-76
2023/07/24 00:57:55;;;;;;;5.80;5.20;;;;;;;19.82;62.58;97327.61;106638;1274;22551;-78
2023/07/24 01:00:23;;;;;;;6.30;5.20;;;;;;;19.83;62.50;97328.42;106960;1274;24229;-77
2023/07/24 01:02:51;;;;;;;6.90;5.50;;;;;;;19.87;62.49;97330.50;106763;1274;25279;-75
2023/07/24 01:05:20;;;;;;;6.20;5.00;;;;;;;19.92;62.53;97334.91;107073;1274;24269;-75
2023/07/24 01:07:48;;;;;;;7.30;5.00;;;;;;;19.95;62.56;97334.26;106911;1274;22675;-76
2023/07/24 01:10:16;;;;;;;6.00;4.80;;;;;;;19.87;63.74;97345.63;106944;1274;22646;-76
2023/07/24 01:13:14;;;;;;;9.10;5.30;;;;;;;19.72;65.14;97356.23;107026;1274;24291;-78
2023/07/24 01:16:00;;;;;;;7.80;6.10;;;;;;;19.62;64.94;97357.88;106965;1274;23003;-79
2023/07/24 01:18:30;;;;;;;12.40;6.20;;;;;;;19.61;65.13;97351.16;106855;1274;22645;-76
2023/07/24 01:21:00;;;;;;;8.20;5.20;;;;;;;19.72;64.64;97343.36;106896;1274;26208;-76
2023/07/24 01:23:34;;;;;;;9.50;5.70;;;;;;;20.00;64.15;97342.66;106880;1274;23906;-76
2023/07/24 01:26:04;;;;;;;6.60;5.30;;;;;;;20.16;63.89;97339.78;106897;1274;22651;-76
2023/07/24 01:28:32;;;;;;;6.60;5.50;;;;;;;20.30;63.51;97334.76;106733;1274;22524;-76
2023/07/24 01:31:00;;;;;;;8.60;5.50;;;;;;;20.35;63.38;97340.05;106858;1274;22517;-76
2023/07/24 01:33:29;;;;;;;8.30;5.70;;;;;;;20.35;63.37;97339.27;106947;1274;22518;-77
2023/07/24 01:36:02;;;;;;;6.40;5.60;;;;;;;20.34;63.22;97337.84;106854;1274;23908;-75
2023/07/24 01:38:34;;;;;;;6.20;5.50;;;;;;;20.35;63.14;97337.70;106982;1274;22610;-76
2023/07/24 01:41:03;;;;;;;6.60;5.20;;;;;;;20.32;63.02;97337.44;106893;1274;23423;-76
2023/07/24 01:43:32;;;;;;;6.80;5.80;;;;;;;20.27;63.08;97335.67;106880;1274;22643;-76
2023/07/24 01:46:00;;;;;;;7.50;5.70;;;;;;;20.21;63.14;97331.15;106875;1263;23029;-75
2023/07/24 01:48:28;;;;;;;8.00;5.50;;;;;;;20.16;63.19;97325.96;106837;1264;22792;-75
2023/07/24 01:50:56;;;;;;;8.40;5.10;;;;;;;20.15;63.28;97321.96;106861;1274;25500;-75
2023/07/24 01:53:24;;;;;;;8.50;5.30;;;;;;;20.12;63.30;97322.08;106843;1274;22537;-75
2023/07/24 01:55:53;;;;;;;9.70;5.70;;;;;;;20.07;63.42;97323.74;106868;1274;24287;-76
2023/07/24 01:58:21;;;;;;;9.00;5.00;;;;;;;20.01;63.46;97328.13;106765;1260;22651;-75
2023/07/24 02:00:49;;;;;;;5.90;5.30;;;;;;;19.89;64.36;97327.77;106740;1274;26558;-75
2023/07/24 02:03:17;;;;;;;7.70;5.00;;;;;;;19.70;65.41;97329.89;106939;1274;22620;-75
2023/07/24 02:05:50;;;;;;;9.40;5.10;;;;;;;19.51;65.80;97326.75;106723;1274;22601;-76
2023/07/24 02:08:18;;;;;;;7.10;5.60;;;;;;;19.35;66.31;97327.41;106974;1274;22738;-77
2023/07/24 02:10:50;;;;;;;6.70;6.00;;;;;;;19.22;66.20;97325.13;106912;1274;24384;-75
2023/07/24 02:13:19;;;;;;;7.30;5.50;;;;;;;19.19;66.32;97326.34;106962;1274;25278;-75
2023/07/24 02:15:49;;;;;;;7.20;5.50;;;;;;;19.18;66.46;97322.96;106819;1274;24192;-76
2023/07/24 02:18:18;;;;;;;8.90;5.90;;;;;;;19.15;66.80;97319.17;106875;1274;22517;-75
2023/07/24 02:20:50;;;;;;;7.00;5.70;;;;;;;19.01;67.37;97319.05;106906;1274;25329;-76
2023/07/24 02:23:18;;;;;;;8.00;5.80;;;;;;;18.86;67.15;97315.95;106915;1274;22559;-75
2023/07/24 02:25:51;;;;;;;6.40;5.60;;;;;;;18.72;67.36;97310.17;106903;1274;25464;-75
2023/07/24 02:28:20;;;;;;;7.40;5.20;;;;;;;18.63;67.79;97304.42;106935;1274;25326;-75
2023/07/24 02:30:48;;;;;;;10.60;5.80;;;;;;;18.55;67.90;97308.19;106909;1263;22649;-75
2023/07/24 02:33:16;;;;;;;8.00;5.80;;;;;;;18.42;70.63;97306.96;106687;1274;22933;-77
2023/07/24 02:35:44;;;;;;;7.10;5.40;;;;;;;18.26;71.24;97309.58;106830;1274;22582;-77
2023/07/24 02:38:12;;;;;;;8.10;4.90;;;;;;;18.15;71.91;97309.62;106872;1266;22521;-75
2023/07/24 02:40:41;;;;;;;7.40;6.00;;;;;;;18.00;72.98;97310.67;106875;1274;22537;-76
2023/07/24 02:43:09;;;;;;;6.90;5.10;;;;;;;17.85;71.97;97312.90;106860;1274;23454;-76
2023/07/24 02:45:39;;;;;;;9.30;5.10;;;;;;;17.78;71.97;97311.43;106917;1274;22535;-76
2023/07/24 02:48:07;;;;;;;7.10;5.30;;;;;;;17.68;72.88;97314.31;106719;1274;22518;-76
2023/07/24 02:50:35;;;;;;;6.70;6.00;;;;;;;17.58;73.13;97316.22;106874;1274;23936;-75
2023/07/24 02:53:04;;;;;;;7.30;6.10;;;;;;;17.49;74.08;97315.52;106864;1274;22563;-75
2023/07/24 02:55:32;;;;;;;9.10;6.50;;;;;;;17.38;74.61;97315.20;106723;1274;23899;-76
2023/07/24 02:58:00;;;;;;;7.60;6.00;;;;;;;17.26;75.25;97316.80;106864;1274;22782;-76
2023/07/24 03:00:28;;;;;;;8.90;6.60;;;;;;;17.14;76.52;97316.87;106874;1274;24372;-76
2023/07/24 03:02:55;;;;;;;8.50;5.50;;;;;;;17.04;75.93;97311.43;106894;1274;22524;-76
2023/07/24 03:05:24;;;;;;;8.60;6.20;;;;;;;16.97;75.37;97308.71;106861;1274;25972;-76
2023/07/24 03:07:52;;;;;;;6.80;6.00;;;;;;;16.89;75.22;97305.20;106869;1262;23440;-78
2023/07/24 03:10:20;;;;;;;9.30;6.10;;;;;;;16.83;75.44;97299.70;106883;1274;24173;-77
2023/07/24 03:12:48;;;;;;;9.60;6.60;;;;;;;16.81;75.95;97300.59;106858;1274;24242;-77
2023/07/24 03:15:17;;;;;;;9.40;5.80;;;;;;;16.85;78.27;97303.15;106979;1274;22528;-77
2023/07/24 03:17:45;;;;;;;7.60;5.60;;;;;;;16.79;77.30;97305.27;106866;1274;22937;-77
2023/07/24 03:20:15;;;;;;;9.90;6.20;;;;;;;16.79;77.24;97301.31;106726;1274;22526;-77
2023/07/24 03:22:44;;;;;;;9.90;6.80;;;;;;;16.81;78.28;97301.28;106879;1274;25396;-77
2023/07/24 03:25:13;;;;;;;7.40;6.70;;;;;;;16.75;78.59;97297.88;106743;1274;22529;-77
2023/07/24 03:27:41;;;;;;;7.60;6.00;;;;;;;16.77;78.24;97299.48;106892;1274;25528;-77
2023/07/24 03:30:09;;;;;;;6.70;6.00;;;;;;;16.78;78.28;97300.36;106871;1274;22542;-75
2023/07/24 03:32:38;;;;;;;6.80;5.30;;;;;;;16.77;79.88;97303.44;106888;1274;24225;-76
2023/07/24 03:35:06;;;;;;;7.20;6.40;;;;;;;16.75;80.53;97304.95;106925;1274;22597;-75
2023/07/24 03:37:38;;;;;;;9.40;6.00;;;;;;;16.78;79.27;97304.23;106880;1274;23271;-75
2023/07/24 03:40:07;;;;;;;7.50;6.70;;;;;;;16.78;79.05;97302.39;106870;1274;22676;-75
2023/07/24 03:42:35;;;;;;;8.10;6.40;;;;;;;16.80;78.88;97297.70;106874;1262;24203;-75
2023/07/24 03:45:03;;;;;;;8.00;6.30;;;;;;;16.83;80.47;97302.73;106870;1274;22530;-75
2023/07/24 03:47:31;;;;;;;9.20;6.20;;;;;;;16.83;81.43;97304.59;106811;1274;25356;-75
2023/07/24 03:49:59;;;;;;;9.00;6.50;;;;;;;16.82;82.27;97307.67;106882;1274;25354;-76
2023/07/24 03:52:27;;;;;;;9.70;6.50;;;;;;;16.84;81.47;97305.77;106859;1274;22525;-75
2023/07/24 03:54:55;;;;;;;10.50;6.10;;;;;;;16.88;80.61;97309.38;106874;1274;22644;-75
2023/07/24 03:57:23;;;;;;;8.90;6.00;;;;;;;16.90;81.80;97310.41;106874;1256;22630;-77
2023/07/24 03:59:51;;;;;;;12.30;6.00;;;;;;;16.89;81.29;97307.77;106873;1274;22520;-77
2023/07/24 04:02:19;;;;;;;9.00;5.80;;;;;;;16.91;82.67;97306.87;106966;1274;23482;-79
2023/07/24 04:04:48;;;;;;;7.20;6.00;;;;;;;16.94;82.64;97306.79;106889;1274;22939;-76
2023/07/24 04:07:15;;;;;;;8.90;6.20;;;;;;;17.03;82.98;97310.95;106895;1274;24206;-76
2023/07/24 04:09:43;;;;;;;10.90;6.90;;;;;;;17.08;82.72;97309.73;106889;1274;22630;-75
2023/07/24 04:12:12;;;;;;;7.70;6.50;;;;;;;17.12;82.56;97310.61;106776;1274;22514;-75
2023/07/24 04:14:39;;;;;;;9.40;7.20;;;;;;;17.19;82.39;97311.15;106922;1274;25328;-76
2023/07/24 04:17:07;;;;;;;8.70;6.20;;;;;;;17.28;82.64;97314.52;106883;1274;25395;-75
2023/07/24 04:19:36;;;;;;;8.40;6.70;;;;;;;17.35;83.36;97313.48;106980;1274;22515;-75
2023/07/24 04:22:04;;;;;;;8.80;6.20;;;;;;;17.45;82.93;97314.17;106890;1274;25372;-76
2023/07/24 04:24:32;;;;;;;9.40;6.60;;;;;;;17.59;85.05;97317.26;106871;1274;22524;-76
2023/07/24 04:27:00;;;;;;;9.40;7.10;;;;;;;17.64;84.73;97312.39;106859;1274;25250;-76
2023/07/24 04:29:28;;;;;;;7.80;6.40;;;;;;;17.75;83.77;97310.19;106883;1274;23930;-76
2023/07/24 04:31:56;;;;;;;10.80;7.00;;;;;;;17.90;83.55;97308.23;106914;1274;22990;-76
2023/07/24 04:34:24;;;;;;;8.00;6.40;;;;;;;18.09;83.55;97310.54;107122;1274;22702;-76
2023/07/24 04:36:52;;;;;;;10.20;6.60;;;;;;;18.27;83.33;97309.20;106878;1274;23550;-76
2023/07/24 04:39:20;;;;;;;10.50;7.40;;;;;;;18.42;83.22;97304.87;106905;1274;24351;-76
2023/07/24 04:41:48;;;;;;;11.50;6.20;;;;;;;18.60;83.25;97302.58;106873;1274;24238;-76
2023/07/24 04:44:16;;;;;;;11.70;6.70;;;;;;;18.76;83.25;97302.54;106980;1274;22531;-76
2023/07/24 04:46:44;;;;;;;10.30;6.80;;;;;;;18.94;83.19;97301.41;106903;1274;25463;-76
2023/07/24 04:49:12;;;;;;;8.30;6.70;;;;;;;19.13;83.11;97304.41;107000;1274;24242;-76
2023/07/24 04:51:40;;;;;;;12.90;7.30;;;;;;;19.31;82.99;97299.95;106906;1274;22655;-76
2023/07/24 04:54:08;;;;;;;7.90;6.20;;;;;;;19.51;83.17;97305.52;107012;1274;23996;-76
2023/07/24 04:56:36;;;;;;;8.20;7.00;;;;;;;19.65;83.37;97310.70;106899;1274;22525;-76
2023/07/24 04:59:04;;;;;;;8.00;6.50;;;;;;;19.76;83.27;97308.02;106967;1274;22611;-76
2023/07/24 05:01:32;;;;;;;9.90;6.40;;;;;;;19.90;83.46;97305.75;106884;1274;26168;-76
2023/07/24 05:04:00;;;;;;;8.30;6.70;;;;;;;20.03;83.14;97306.91;106885;1274;25329;-76
2023/07/24 05:06:28;;;;;;;12.30;7.30;;;;;;;20.18;82.91;97306.98;106858;1274;23962;-76
2023/07/24 05:08:56;;;;;;;12.30;7.20;;;;;;;20.35;82.94;97312.38;106914;1274;25449;-77
2023/07/24 05:11:24;;;;;;;8.50;7.60;;;;;;;20.50;82.68;97313.61;106891;1274;22716;-77
2023/07/24 05:13:52;;;;;;;8.30;7.20;;;;;;;20.66;82.51;97312.34;106894;1274;22835;-77
2023/07/24 05:16:20;;;;;;;12.70;7.50;;;;;;;20.78;82.41;97315.58;106780;1274;22690;-77
2023/07/24 05:18:48;;;;;;;8.10;6.80;;;;;;;20.90;82.05;97311.27;106764;1274;24347;-78
2023/07/24 05:21:16;;;;;;;10.60;7.50;;;;;;;21.01;81.78;97319.56;106927;1274;25391;-77
2023/07/24 05:23:44;;;;;;;10.00;7.20;;;;;;;21.13;81.23;97319.09;107172;1274;22543;-76
2023/07/24 05:26:12;;;;;;;8.40;7.20;;;;;;;21.25;80.97;97316.50;106910;1274;22597;-78
2023/07/24 05:28:40;;;;;;;10.80;6.70;;;;;;;21.38;80.77;97320.11;106909;1251;22635;-76
2023/07/24 05:31:08;;;;;;;9.40;7.00;;;;;;;21.52;80.75;97319.63;106892;1274;25557;-76
2023/07/24 05:33:36;;;;;;;8.80;7.10;;;;;;;21.62;79.63;97320.45;106901;1274;22640;-76
2023/07/24 05:36:04;;;;;;;8.10;7.30;;;;;;;21.65;79.34;97314.60;106898;1274;22785;-77
2023/07/24 05:38:32;;;;;;;9.90;7.30;;;;;;;21.71;79.57;97316.50;106873;1274;22519;-77
2023/07/24 05:41:02;;;;;;;10.90;7.00;;;;;;;21.79;79.53;97313.77;106889;1251;22630;-76
2023/07/24 05:43:32;;;;;;;9.90;7.40;;;;;;;21.87;79.21;97315.91;106886;1274;25488;-77
2023/07/24 05:46:00;;;;;;;9.80;7.80;;;;;;;21.95;79.40;97314.14;106962;1274;25328;-77
2023/07/24 05:48:28;;;;;;;9.70;7.20;;;;;;;22.03;79.38;97313.08;106904;1274;24259;-77
2023/07/24 05:50:56;;;;;;;8.80;6.90;;;;;;;22.14;79.21;97314.66;106912;1274;25277;-77
2023/07/24 05:53:24;;;;;;;7.90;6.90;;;;;;;22.15;78.62;97313.10;106897;1274;22522;-77
2023/07/24 05:56:00;;;;;;;9.80;7.40;;;;;;;22.15;78.53;97312.70;106868;1274;22920;-77
2023/07/24 05:58:28;;;;;;;9.90;7.60;;;;;;;22.17;78.18;97309.20;107014;1274;22743;-77
2023/07/24 06:00:56;;;;;;;9.40;7.70;;;;;;;22.16;78.12;97314.27;106873;1274;25386;-77
2023/07/24 06:03:25;;;;;;;8.60;7.40;;;;;;;22.25;78.47;97309.69;106919;1274;22572;-77
2023/07/24 06:05:54;;;;;;;9.40;7.10;;;;;;;22.35;78.72;97314.48;106947;1274;22630;-77
2023/07/24 06:08:22;;;;;;;8.30;7.40;;;;;;;22.43;78.21;97314.80;106782;1274;24296;-77
2023/07/24 06:10:51;;;;;;;9.20;7.60;;;;;;;22.50;78.16;97312.38;106907;1274;22535;-77
2023/07/24 06:13:19;;;;;;;11.60;8.00;;;;;;;22.59;77.55;97312.53;106837;1274;22794;-76
2023/07/24 06:15:48;;;;;;;13.30;7.90;;;;;;;22.68;77.33;97316.14;106919;1274;25290;-76
2023/07/24 06:18:17;;;;;;;13.50;7.50;;;;;;;22.78;76.80;97319.13;106886;1274;24078;-76
2023/07/24 06:20:45;;;;;;;13.30;7.90;;;;;;;22.88;76.99;97312.13;106884;1274;24077;-78
2023/07/24 06:23:12;;;;;;;14.10;8.10;;;;;;;23.04;77.10;97309.39;107128;1274;24056;-77
2023/07/24 06:25:40;;;;;;;14.70;8.60;;;;;;;23.19;76.35;97317.67;107147;1274;22518;-77
2023/07/24 06:28:08;;;;;;;14.80;8.60;;;;;;;23.29;76.19;97316.48;107134;1274;22609;-76
2023/07/24 06:30:38;;;;;;;17.60;8.60;;;;;;;23.45;75.53;97315.56;107123;1274;22770;-76
2023/07/24 06:33:06;;;;;;;19.30;13.70;;;;;;;23.56;75.14;97307.67;107140;1274;22639;-76
2023/07/24 06:35:35;;;;;;;36.80;17.70;;;;;;;23.66;74.56;97302.13;106860;1274;22535;-76
2023/07/24 06:38:03;;;;;;;11.90;8.70;;;;;;;23.77;74.29;97301.30;106911;1274;22920;-78
2023/07/24 06:40:31;;;;;;;26.60;14.70;;;;;;;23.89;73.73;97303.84;107154;1253;24260;-76
2023/07/24 06:42:59;;;;;;;31.30;15.80;;;;;;;23.98;72.36;97308.13;106874;1274;22569;-76
2023/07/24 06:45:27;;;;;;;20.40;13.40;;;;;;;24.04;71.43;97311.79;106891;1274;24282;-76
2023/07/24 06:47:55;;;;;;;11.30;8.10;;;;;;;24.09;70.48;97312.78;106861;1274;22537;-76
2023/07/24 06:50:23;;;;;;;14.20;8.10;;;;;;;24.10;69.85;97310.80;106886;1274;23915;-77
2023/07/24 06:52:53;;;;;;;12.30;6.80;;;;;;;24.13;69.39;97303.15;106869;1274;22535;-76
2023/07/24 06:55:21;;;;;;;9.30;7.50;;;;;;;24.16;69.41;97301.73;106887;1274;22525;-77
2023/07/24 06:57:49;;;;;;;10.70;7.00;;;;;;;24.15;69.66;97303.70;106892;1274;23124;-76
2023/07/24 07:00:17;;;;;;;8.70;6.80;;;;;;;24.11;69.31;97301.28;106897;1274;25400;-76
2023/07/24 07:02:45;;;;;;;11.60;7.30;;;;;;;24.06;68.31;97296.05;106878;1274;22937;-77
2023/07/24 07:05:13;;;;;;;8.40;6.40;;;;;;;24.07;68.24;97299.04;106872;1274;22529;-77
2023/07/24 07:07:41;;;;;;;10.00;6.70;;;;;;;24.05;67.55;97292.52;106904;1274;24053;-77
2023/07/24 07:10:09;;;;;;;13.30;7.30;;;;;;;24.00;67.28;97293.33;106875;1274;25369;-77
2023/07/24 07:12:37;;;;;;;8.60;7.70;;;;;;;24.09;67.18;97293.59;106879;1274;25333;-77
2023/07/24 07:15:06;;;;;;;9.40;7.10;;;;;;;24.21;66.44;97303.27;106868;1274;23045;-77
2023/07/24 07:17:34;;;;;;;11.40;7.10;;;;;;;24.38;65.87;97296.55;106909;1274;22540;-78
2023/07/24 07:20:03;;;;;;;12.40;7.60;;;;;;;24.56;65.43;97296.98;106917;1274;25410;-78
2023/07/24 07:22:30;;;;;;;11.80;7.30;;;;;;;24.72;64.70;97295.04;107108;1274;22659;-76
2023/07/24 07:24:58;;;;;;;12.90;7.40;;;;;;;24.87;63.74;97291.73;106849;1274;25327;-76
2023/07/24 07:27:26;;;;;;;16.60;7.20;;;;;;;25.00;62.64;97288.95;106877;1274;22783;-77
2023/07/24 07:29:54;;;;;;;7.90;6.80;;;;;;;25.12;61.47;97285.77;107117;1274;24223;-77
2023/07/24 07:32:22;;;;;;;10.10;6.30;;;;;;;25.24;57.76;97286.84;107178;1274;25361;-77
2023/07/24 07:34:50;;;;;;;11.90;6.50;;;;;;;25.32;56.82;97280.60;106915;1274;24238;-77
2023/07/24 07:37:18;;;;;;;9.70;6.30;;;;;;;25.43;56.60;97284.89;106908;1274;24361;-76
2023/07/24 07:39:46;;;;;;;11.20;6.50;;;;;;;25.43;55.49;97281.98;106876;1274;24357;-77
2023/07/24 07:42:14;;;;;;;7.50;6.60;;;;;;;25.50;55.51;97283.14;106869;1274;22508;-77
2023/07/24 07:44:46;;;;;;;9.50;6.80;;;;;;;25.60;54.58;97278.06;106918;1274;22541;-77
2023/07/24 07:47:14;;;;;;;8.50;6.70;;;;;;;25.63;54.05;97283.38;106899;1274;22623;-77
2023/07/24 07:49:42;;;;;;;7.70;6.90;;;;;;;25.60;53.82;97287.44;106872;1274;22630;-77
2023/07/24 07:52:10;;;;;;;8.70;7.10;;;;;;;25.54;52.36;97287.19;106859;1274;22627;-77
2023/07/24 07:54:38;;;;;;;13.40;7.00;;;;;;;25.56;52.41;97283.69;106882;1274;25253;-77
2023/07/24 07:57:06;;;;;;;7.10;5.70;;;;;;;25.70;52.75;97280.60;106925;1274;25431;-77
2023/07/24 07:59:35;;;;;;;10.20;6.70;;;;;;;25.81;52.48;97279.21;106848;1274;22637;-77
2023/07/24 08:02:03;;;;;;;7.50;6.40;;;;;;;25.91;52.72;97274.45;106886;1274;22701;-77
2023/07/24 08:04:31;;;;;;;7.10;6.40;;;;;;;26.06;52.03;97278.17;106852;1274;25278;-77
2023/07/24 08:06:59;;;;;;;7.80;6.40;;;;;;;26.07;50.94;97273.73;106899;1274;22560;-77
2023/07/24 08:09:28;;;;;;;8.60;6.90;;;;;;;25.99;49.98;97264.23;106886;1274;25277;-77
2023/07/24 08:11:56;;;;;;;9.80;6.70;;;;;;;26.06;50.92;97253.41;106867;1274;22956;-77
2023/07/24 08:14:24;;;;;;;10.60;6.80;;;;;;;26.16;50.88;97255.86;106837;1274;22632;-77
2023/07/24 08:16:53;;;;;;;9.70;6.50;;;;;;;26.23;51.37;97255.83;106878;1274;22521;-77
2023/07/24 08:19:21;;;;;;;10.60;7.00;;;;;;;26.41;51.07;97258.63;106947;1274;24251;-77
2023/07/24 08:21:49;;;;;;;10.10;6.70;;;;;;;26.53;49.51;97254.34;106874;1274;22999;-77
2023/07/24 08:24:17;;;;;;;12.00;6.70;;;;;;;26.60;48.76;97239.95;106877;1274;23926;-77
2023/07/24 08:26:45;;;;;;;9.60;6.40;;;;;;;26.69;48.67;97235.60;106910;1274;25462;-78
2023/07/24 08:29:13;;;;;;;16.70;7.20;;;;;;;26.80;47.98;97236.05;107110;1274;22520;-76
2023/07/24 08:31:41;;;;;;;15.70;6.70;;;;;;;26.89;48.17;97230.42;106865;1274;23264;-76
2023/07/24 08:34:09;;;;;;;10.50;7.30;;;;;;;27.06;48.08;97235.62;106892;1274;22552;-76
2023/07/24 08:36:37;;;;;;;12.50;6.90;;;;;;;27.25;47.27;97243.11;106880;1274;24226;-77
2023/07/24 08:39:05;;;;;;;10.30;7.30;;;;;;;27.27;47.14;97240.31;106895;1274;22541;-76
2023/07/24 08:41:34;;;;;;;9.90;7.40;;;;;;;27.37;45.90;97252.99;106887;1274;23903;-76
2023/07/24 08:44:04;;;;;;;9.70;7.20;;;;;;;27.52;45.73;97253.73;106951;1274;24255;-76
2023/07/24 08:46:36;;;;;;;15.30;7.10;;;;;;;27.71;44.99;97246.43;106926;1274;22534;-78
2023/07/24 08:49:04;;;;;;;13.70;7.20;;;;;;;27.78;44.53;97257.14;106888;1274;24388;-78
2023/07/24 08:51:32;;;;;;;9.50;6.60;;;;;;;27.75;42.58;97263.42;106884;1274;23893;-77
2023/07/24 08:54:01;;;;;;;11.60;7.10;;;;;;;27.52;42.04;97263.58;106883;1274;25234;-77
2023/07/24 08:56:29;;;;;;;12.50;7.30;;;;;;;27.23;42.58;97249.09;106906;1274;22517;-76
2023/07/24 08:58:58;;;;;;;14.30;7.10;;;;;;;27.09;43.01;97250.36;106875;1274;24205;-77
2023/07/24 09:01:26;;;;;;;11.40;6.80;;;;;;;26.93;43.77;97250.42;106857;1274;22532;-78
2023/07/24 09:03:54;;;;;;;8.90;7.00;;;;;;;26.86;44.24;97253.63;107117;1274;25466;-78
2023/07/24 09:06:22;;;;;;;11.90;7.00;;;;;;;26.80;44.64;97244.48;107126;1274;24388;-78
2023/07/24 09:08:53;;;;;;;10.70;7.90;;;;;;;26.82;44.78;97231.76;107114;1274;22631;-78
2023/07/24 09:11:21;;;;;;;9.60;6.80;;;;;;;26.82;44.79;97240.74;107202;1274;22541;-77
2023/07/24 09:13:50;;;;;;;9.70;7.00;;;;;;;26.90;44.82;97240.98;107142;1274;24231;-77
2023/07/24 09:16:26;;;;;;;11.20;7.70;;;;;;;26.98;44.43;97226.33;107117;1274;22565;-78
2023/07/24 09:18:54;;;;;;;9.20;7.60;;;;;;;26.94;44.56;97225.67;107043;1274;22538;-76
2023/07/24 09:21:30;;;;;;;11.30;7.50;;;;;;;26.90;44.53;97213.90;106857;1274;25472;-77
2023/07/24 09:24:12;;;;;;;12.80;7.30;;;;;;;26.88;45.08;97213.53;106876;1274;26535;-77
2023/07/24 09:26:53;;;;;;;9.10;7.50;;;;;;;26.94;45.25;97211.61;106892;1274;22540;-77
2023/07/24 09:29:32;;;;;;;9.80;7.90;;;;;;;27.07;45.19;97206.95;106915;1274;22507;-76
2023/07/24 09:32:01;;;;;;;13.70;8.40;;;;;;;27.27;45.22;97201.04;106946;1253;22535;-77
2023/07/24 09:34:29;;;;;;;10.80;7.50;;;;;;;27.35;45.06;97196.68;106862;1274;22524;-77
2023/07/24 09:36:57;;;;;;;9.90;7.10;;;;;;;27.37;44.55;97205.89;106901;1274;22492;-77
2023/07/24 09:39:26;;;;;;;13.70;7.50;;;;;;;27.35;44.31;97202.84;106881;1274;23048;-76
2023/07/24 09:42:04;;;;;;;13.00;7.20;;;;;;;27.37;44.06;97198.06;107168;1274;24237;-77
2023/07/24 09:44:32;;;;;;;9.50;7.70;;;;;;;27.34;43.15;97198.83;107211;1269;22545;-77
2023/07/24 09:47:01;;;;;;;9.00;7.50;;;;;;;27.28;41.63;97202.20;106873;1274;22551;-77
2023/07/24 09:49:52;;;;;;;9.70;6.90;;;;;;;27.21;40.40;97196.02;106870;1274;25291;-76
2023/07/24 09:52:20;;;;;;;9.60;7.50;;;;;;;27.12;40.56;97190.79;106946;1274;22634;-76
2023/07/24 09:55:12;;;;;;;10.50;8.30;;;;;;;27.15;40.61;97187.60;106867;1274;25393;-77
2023/07/24 09:57:41;;;;;;;9.60;7.90;;;;;;;27.22;40.97;97190.95;107152;1274;25392;-76
2023/07/24 10:00:13;;;;;;;13.10;8.30;;;;;;;27.26;40.94;97188.48;106905;1274;22629;-78
2023/07/24 10:02:41;;;;;;;10.60;8.00;;;;;;;27.38;40.72;97186.27;107186;1263;24193;-77
2023/07/24 10:05:11;;;;;;;11.20;8.40;;;;;;;27.59;39.61;97182.40;107141;1274;24361;-77
2023/07/24 10:07:40;;;;;;;8.90;8.00;;;;;;;27.65;38.66;97181.41;106947;1274;24069;-76
2023/07/24 10:10:09;;;;;;;10.10;7.90;;;;;;;27.56;38.13;97177.65;107113;1274;25004;-76
2023/07/24 10:12:37;;;;;;;9.80;8.10;;;;;;;27.58;38.33;97173.17;106867;1274;22551;-76
2023/07/24 10:15:06;;;;;;;11.60;9.20;;;;;;;27.72;38.51;97171.21;106863;1274;22782;-77
2023/07/24 10:17:39;;;;;;;8.70;7.80;;;;;;;27.93;38.15;97171.05;106931;1274;25281;-77
2023/07/24 10:20:10;;;;;;;9.10;7.90;;;;;;;28.13;37.37;97173.19;106947;1274;24376;-77
2023/07/24 10:22:41;;;;;;;12.70;8.50;;;;;;;28.20;37.28;97186.15;107089;1274;23898;-78
2023/07/24 10:25:10;;;;;;;9.30;8.30;;;;;;;28.08;36.85;97182.27;107135;1274;25613;-76
2023/07/24 10:27:43;;;;;;;10.00;8.60;;;;;;;27.98;36.82;97177.90;106774;1274;24188;-76
2023/07/24 10:30:12;;;;;;;10.10;8.90;;;;;;;27.89;36.58;97166.73;106858;1274;22602;-77
2023/07/24 10:33:10;;;;;;;8.50;7.60;;;;;;;27.84;36.70;97169.62;106879;1274;24199;-76
2023/07/24 10:35:43;;;;;;;9.30;8.40;;;;;;;27.89;36.96;97169.73;106943;1274;22524;-76
2023/07/24 10:38:13;;;;;;;9.20;8.00;;;;;;;27.92;37.23;97162.17;106865;1274;22522;-76
2023/07/24 10:40:43;;;;;;;11.60;8.40;;;;;;;27.97;37.08;97159.97;106923;1274;22533;-77
2023/07/24 10:43:17;;;;;;;8.70;7.80;;;;;;;28.03;37.10;97162.67;106993;1274;22648;-77
2023/07/24 10:45:48;;;;;;;;;;;;;;;28.04;37.16;97156.49;106899;1274;25378;-76
2023/07/24 10:48:18;;;;;;;10.80;8.50;;;;;;;28.07;37.35;97169.30;106865;1274;22650;-77
2023/07/24 10:50:50;;;;;;;9.60;8.60;;;;;;;28.09;36.91;97170.92;106926;1274;26646;-77
2023/07/24 10:53:23;;;;;;;11.10;8.80;;;;;;;28.06;36.81;97170.28;107135;1274;25237;-77
2023/07/24 10:55:51;;;;;;;10.70;9.10;;;;;;;28.07;37.37;97169.63;107091;1274;22532;-77
2023/07/24 10:58:25;;;;;;;10.70;8.70;;;;;;;28.11;36.81;97173.39;107180;1272;22638;-77
2023/07/24 11:00:53;;;;;;;13.20;8.60;;;;;;;28.05;37.27;97169.52;107178;1274;22517;-76
2023/07/24 11:03:21;;;;;;;11.00;8.20;;;;;;;28.02;37.02;97174.16;106882;1263;22537;-77
2023/07/24 11:05:50;;;;;;;10.20;9.00;;;;;;;27.97;37.20;97167.10;106847;1274;22652;-77
2023/07/24 11:08:19;;;;;;;14.20;8.60;;;;;;;27.90;37.69;97165.70;106890;1274;23953;-76
2023/07/24 11:10:54;;;;;;;12.80;8.90;;;;;;;27.85;37.55;97160.97;106992;1274;24401;-76
2023/07/24 11:13:28;;;;;;;10.80;8.90;;;;;;;27.80;37.88;97155.77;107156;1274;24353;-76
2023/07/24 11:15:56;;;;;;;11.00;8.90;;;;;;;27.75;38.07;97148.45;107354;1274;22515;-77
2023/07/24 11:18:26;;;;;;;10.00;8.40;;;;;;;27.70;38.09;97142.95;107118;1274;24368;-77
2023/07/24 11:21:12;;;;;;;9.20;8.20;;;;;;;27.62;38.44;97142.02;107134;1274;22643;-77
2023/07/24 11:23:54;;;;;;;10.70;9.10;;;;;;;27.58;38.77;97140.60;107115;1274;22520;-77
2023/07/24 11:26:24;;;;;;;10.80;8.80;;;;;;;27.55;38.93;97145.58;107109;1274;24252;-77
2023/07/24 11:28:53;;;;;;;11.20;8.80;;;;;;;27.49;39.26;97138.77;107127;1274;22775;-77
2023/07/24 11:31:21;;;;;;;11.70;8.70;;;;;;;27.41;39.34;97137.27;107148;1266;22523;-77